createdAt,value
2022-09-15T00:02:07.527Z,17.83
2022-09-15T00:04:38.615Z,17.76
2022-09-15T00:07:08.156Z,17.80
2022-09-15T00:09:37.877Z,17.73
2022-09-15T00:12:07.907Z,17.80
2022-09-15T00:14:37.348Z,17.88
2022-09-15T00:17:06.793Z,17.87
2022-09-15T00:19:37.678Z,17.95
2022-09-15T00:22:07.174Z,17.87
2022-09-15T00:24:37.069Z,17.82
2022-09-15T00:27:06.782Z,17.76
2022-09-15T00:29:36.357Z,17.78
2022-09-15T00:32:06.209Z,17.78
2022-09-15T00:34:37.297Z,17.72
2022-09-15T00:37:07.228Z,17.73
2022-09-15T00:39:36.883Z,17.74
2022-09-15T00:42:07.052Z,17.76
2022-09-15T00:44:58.763Z,17.74
2022-09-15T00:47:35.124Z,17.74
2022-09-15T00:50:11.858Z,17.68
2022-09-15T00:52:47.509Z,17.64
2022-09-15T00:55:23.027Z,17.66
2022-09-15T00:57:58.941Z,17.63
2022-09-15T01:00:30.189Z,17.64
2022-09-15T01:03:00.026Z,17.62
2022-09-15T01:05:37.865Z,17.74
2022-09-15T01:08:12.946Z,17.73
2022-09-15T01:10:43.112Z,17.75
2022-09-15T01:13:15.397Z,17.83
2022-09-15T01:16:01.599Z,17.90
2022-09-15T01:18:45.340Z,18.07
2022-09-15T01:21:38.981Z,18.05
2022-09-15T01:24:44.860Z,18.15
2022-09-15T01:27:55.669Z,18.33
2022-09-15T01:30:27.254Z,18.44
2022-09-15T01:33:22.401Z,18.44
2022-09-15T01:36:09.403Z,18.35
2022-09-15T01:38:56.645Z,18.33
2022-09-15T01:41:33.942Z,18.31
2022-09-15T01:44:09.075Z,18.35
2022-09-15T01:46:47.601Z,18.31
2022-09-15T01:49:24.178Z,18.40
2022-09-15T01:51:55.617Z,18.35
2022-09-15T01:54:33.587Z,18.35
2022-09-15T01:57:03.796Z,18.39
2022-09-15T01:59:33.410Z,18.34
2022-09-15T02:02:09.943Z,18.29
2022-09-15T02:04:46.296Z,18.25
2022-09-15T02:07:26.525Z,18.21
2022-09-15T02:10:11.463Z,18.26
2022-09-15T02:12:50.748Z,18.26
2022-09-15T02:15:29.050Z,18.33
2022-09-15T02:18:03.240Z,18.30
2022-09-15T02:20:49.925Z,18.22
2022-09-15T02:23:27.605Z,18.22
2022-09-15T02:26:04.974Z,18.18
2022-09-15T02:28:39.068Z,18.18
2022-09-15T02:31:16.855Z,18.14
2022-09-15T02:33:54.348Z,18.02
2022-09-15T02:36:24.337Z,17.99
2022-09-15T02:39:00.613Z,18.01
2022-09-15T02:41:30.265Z,17.98
2022-09-15T02:43:59.636Z,17.99
2022-09-15T02:46:29.295Z,17.97
2022-09-15T02:49:00.070Z,17.96
2022-09-15T02:51:29.483Z,17.88
2022-09-15T02:53:59.164Z,17.85
2022-09-15T02:56:28.681Z,17.78
2022-09-15T02:58:58.085Z,17.75
2022-09-15T03:01:32.246Z,17.69
2022-09-15T03:04:05.021Z,17.65
2022-09-15T03:06:35.421Z,17.62
2022-09-15T03:09:08.656Z,17.64
2022-09-15T03:11:38.462Z,17.62
2022-09-15T03:14:08.534Z,17.53
2022-09-15T03:16:37.993Z,17.53
2022-09-15T03:19:08.756Z,17.49
2022-09-15T03:21:38.148Z,17.45
2022-09-15T03:24:07.764Z,17.43
2022-09-15T03:26:37.193Z,17.42
2022-09-15T03:29:06.577Z,17.49
2022-09-15T03:31:35.985Z,17.55
2022-09-15T03:34:06.041Z,17.57
2022-09-15T03:36:36.846Z,17.57
2022-09-15T03:39:06.489Z,17.58
2022-09-15T03:41:35.939Z,17.59
2022-09-15T03:44:05.658Z,17.57
2022-09-15T03:46:35.906Z,17.55
2022-09-15T03:49:05.309Z,17.51
2022-09-15T03:51:36.038Z,17.54
2022-09-15T03:54:05.900Z,17.54
2022-09-15T03:56:35.597Z,17.46
2022-09-15T03:59:06.810Z,17.46
2022-09-15T04:01:37.023Z,17.47
2022-09-15T04:04:06.839Z,17.53
2022-09-15T04:06:38.157Z,17.52
2022-09-15T04:09:07.771Z,17.49
2022-09-15T04:11:39.455Z,17.55
2022-09-15T04:14:08.813Z,17.48
2022-09-15T04:16:38.274Z,17.58
2022-09-15T04:19:07.713Z,17.56
2022-09-15T04:21:38.484Z,17.61
2022-09-15T04:24:08.114Z,17.65
2022-09-15T04:26:38.949Z,17.67
2022-09-15T04:29:16.345Z,17.69
2022-09-15T04:31:46.712Z,17.69
2022-09-15T04:34:16.253Z,17.75
2022-09-15T04:36:47.244Z,17.81
2022-09-15T04:39:16.779Z,17.79
2022-09-15T04:41:46.187Z,17.78
2022-09-15T04:44:15.725Z,17.75
2022-09-15T04:46:45.421Z,17.71
2022-09-15T04:49:14.917Z,17.78
2022-09-15T04:51:45.784Z,17.75
2022-09-15T04:54:15.262Z,17.70
2022-09-15T04:56:45.585Z,17.78
2022-09-15T04:59:18.457Z,17.77
2022-09-15T05:01:48.678Z,17.79
2022-09-15T05:04:18.154Z,17.77
2022-09-15T05:06:49.145Z,17.70
2022-09-15T05:09:18.705Z,17.73
2022-09-15T05:11:48.181Z,17.69
2022-09-15T05:14:18.040Z,17.62
2022-09-15T05:16:47.511Z,17.57
2022-09-15T05:19:16.934Z,17.58
2022-09-15T05:21:47.734Z,17.56
2022-09-15T05:24:17.321Z,17.57
2022-09-15T05:26:46.673Z,17.61
2022-09-15T05:29:16.385Z,17.67
2022-09-15T05:31:45.849Z,17.68
2022-09-15T05:34:16.449Z,17.65
2022-09-15T05:36:46.032Z,17.65
2022-09-15T05:39:17.186Z,17.65
2022-09-15T05:41:46.665Z,17.65
2022-09-15T05:44:16.412Z,17.72
2022-09-15T05:46:45.854Z,17.74
2022-09-15T05:49:15.297Z,17.75
2022-09-15T05:51:44.772Z,17.75
2022-09-15T05:54:14.235Z,17.72
2022-09-15T05:56:45.016Z,17.72
2022-09-15T05:59:14.496Z,17.82
2022-09-15T06:01:43.907Z,17.83
2022-09-15T06:04:13.408Z,17.87
2022-09-15T06:06:42.805Z,17.90
2022-09-15T06:09:12.237Z,17.91
2022-09-15T06:11:41.682Z,17.94
2022-09-15T06:14:14.385Z,18.00
2022-09-15T06:16:43.685Z,17.98
2022-09-15T06:19:13.027Z,18.02
2022-09-15T06:21:42.531Z,18.02
2022-09-15T06:24:13.610Z,18.07
2022-09-15T06:26:43.049Z,18.13
2022-09-15T06:29:14.224Z,18.11
2022-09-15T06:31:43.852Z,18.15
2022-09-15T06:34:13.455Z,18.13
2022-09-15T06:36:42.943Z,18.12
2022-09-15T06:39:12.342Z,18.13
2022-09-15T06:42:01.319Z,18.10
2022-09-15T06:44:32.636Z,18.07
2022-09-15T06:47:02.080Z,18.04
2022-09-15T06:49:31.792Z,18.11
2022-09-15T06:52:01.916Z,17.99
2022-09-15T06:54:32.524Z,17.94
2022-09-15T06:57:01.929Z,17.90
2022-09-15T06:59:32.701Z,17.89
2022-09-15T07:02:05.164Z,17.87
2022-09-15T07:04:36.907Z,17.88
2022-09-15T07:07:06.481Z,17.94
2022-09-15T07:09:38.806Z,18.00
2022-09-15T07:12:10.615Z,18.04
2022-09-15T07:14:41.647Z,18.13
2022-09-15T07:17:11.033Z,18.22
2022-09-15T07:19:41.477Z,18.26
2022-09-15T07:22:11.933Z,18.33
2022-09-15T07:24:41.320Z,18.34
2022-09-15T07:27:10.780Z,18.43
2022-09-15T07:29:41.514Z,18.45
2022-09-15T07:32:11.024Z,18.52
2022-09-15T07:34:42.841Z,18.63
2022-09-15T07:37:12.247Z,18.67
2022-09-15T07:39:41.698Z,18.66
2022-09-15T07:42:11.274Z,18.67
2022-09-15T07:44:42.112Z,18.71
2022-09-15T07:47:13.977Z,18.74
2022-09-15T07:49:43.379Z,18.83
2022-09-15T07:52:12.865Z,18.81
2022-09-15T07:54:42.292Z,18.83
2022-09-15T07:57:11.698Z,18.86
2022-09-15T07:59:42.486Z,18.87
2022-09-15T08:02:18.758Z,18.89
2022-09-15T08:04:48.485Z,18.90
2022-09-15T08:07:20.048Z,18.89
2022-09-15T08:09:49.424Z,18.93
2022-09-15T08:12:21.073Z,18.94
2022-09-15T08:14:51.833Z,19.02
2022-09-15T08:17:21.339Z,19.13
2022-09-15T08:19:50.765Z,19.12
2022-09-15T08:22:20.182Z,19.14
2022-09-15T08:24:49.581Z,19.20
2022-09-15T08:27:19.053Z,19.10
2022-09-15T08:29:48.746Z,19.11
2022-09-15T08:32:19.913Z,19.13
2022-09-15T08:34:49.313Z,19.13
2022-09-15T08:37:18.890Z,19.19
2022-09-15T08:39:49.062Z,19.14
2022-09-15T08:42:23.034Z,19.14
2022-09-15T08:45:00.006Z,19.16
2022-09-15T08:47:37.410Z,19.17
2022-09-15T08:50:16.497Z,19.15
2022-09-15T08:52:52.227Z,19.15
2022-09-15T08:55:39.121Z,19.06
2022-09-15T08:58:16.345Z,19.06
2022-09-15T09:00:48.851Z,19.13
2022-09-15T09:03:59.761Z,19.12
2022-09-15T09:06:37.099Z,19.28
2022-09-15T09:09:29.951Z,19.36
2022-09-15T09:12:31.072Z,19.42
2022-09-15T09:15:26.944Z,19.49
2022-09-15T09:18:59.620Z,19.75
2022-09-15T09:21:33.667Z,19.90
2022-09-15T09:24:14.137Z,20.00
2022-09-15T09:26:44.568Z,20.20
2022-09-15T09:29:19.417Z,20.43
2022-09-15T09:31:52.170Z,20.63
2022-09-15T09:34:28.685Z,20.72
2022-09-15T09:37:01.044Z,20.90
2022-09-15T09:39:30.534Z,20.98
2022-09-15T09:42:00.227Z,21.03
2022-09-15T09:44:32.645Z,20.91
2022-09-15T09:47:03.962Z,20.89
2022-09-15T09:49:40.018Z,21.01
2022-09-15T09:52:09.451Z,20.94
2022-09-15T09:54:39.263Z,20.97
2022-09-15T09:57:29.078Z,21.19
2022-09-15T09:59:59.269Z,21.34
2022-09-15T10:02:29.913Z,21.33
2022-09-15T10:05:21.132Z,21.40
2022-09-15T10:07:50.715Z,21.44
2022-09-15T10:10:23.881Z,21.32
2022-09-15T10:15:28.829Z,21.15
2022-09-15T10:17:59.054Z,21.07
2022-09-15T10:20:34.071Z,20.85
2022-09-15T10:23:07.673Z,20.76
2022-09-15T10:28:29.371Z,20.72
2022-09-15T10:31:07.573Z,20.59
2022-09-15T10:33:38.999Z,20.63
2022-09-15T10:36:17.765Z,20.56
2022-09-15T10:38:50.381Z,20.50
2022-09-15T10:41:25.083Z,20.52
2022-09-15T10:44:31.673Z,20.43
2022-09-15T10:47:15.394Z,20.48
2022-09-15T10:50:09.208Z,20.43
2022-09-15T10:53:05.971Z,20.39
2022-09-15T10:55:52.812Z,20.28
2022-09-15T10:58:45.860Z,20.32
2022-09-15T11:01:52.894Z,20.33
2022-09-15T11:05:20.564Z,20.44
2022-09-15T11:08:26.418Z,20.42
2022-09-15T11:11:08.862Z,20.42
2022-09-15T11:13:58.785Z,20.39
2022-09-15T11:16:53.647Z,20.38
2022-09-15T11:19:56.678Z,20.43
2022-09-15T11:22:32.669Z,20.52
2022-09-15T11:25:13.931Z,20.58
2022-09-15T11:27:48.269Z,20.61
2022-09-15T11:30:21.787Z,20.72
2022-09-15T11:32:59.895Z,20.75
2022-09-15T11:35:43.801Z,20.80
2022-09-15T11:38:35.610Z,20.81
2022-09-15T11:41:27.270Z,20.75
2022-09-15T11:44:17.600Z,20.88
2022-09-15T11:47:12.453Z,21.06
2022-09-15T11:49:48.943Z,21.22
2022-09-15T11:52:48.132Z,21.41
2022-09-15T11:55:31.590Z,21.31
2022-09-15T11:58:22.389Z,21.15
2022-09-15T12:00:58.417Z,21.00
2022-09-15T12:03:38.821Z,20.76
2022-09-15T12:06:17.191Z,20.79
2022-09-15T12:08:53.842Z,20.72
2022-09-15T12:11:28.824Z,20.69
2022-09-15T12:14:01.126Z,20.56
2022-09-15T12:16:31.650Z,20.52
2022-09-15T12:19:08.423Z,20.18
2022-09-15T12:21:49.083Z,19.68
2022-09-15T12:24:30.909Z,19.27
2022-09-15T12:27:02.322Z,19.13
2022-09-15T12:29:42.174Z,19.11
2022-09-15T12:32:24.631Z,19.31
2022-09-15T12:35:08.955Z,19.65
2022-09-15T12:37:46.154Z,19.95
2022-09-15T12:40:37.065Z,20.36
2022-09-15T12:43:22.878Z,20.70
2022-09-15T12:46:01.223Z,20.66
2022-09-15T12:48:33.854Z,20.66
2022-09-15T12:51:05.933Z,20.66
2022-09-15T12:53:39.598Z,20.60
2022-09-15T12:56:23.498Z,20.64
2022-09-15T12:58:54.785Z,20.85
2022-09-15T13:01:49.502Z,21.11
2022-09-15T13:04:53.441Z,21.15
2022-09-15T13:07:38.533Z,21.02
2022-09-15T13:10:36.963Z,21.19
2022-09-15T13:13:20.885Z,21.32
2022-09-15T13:15:54.400Z,21.37
2022-09-15T13:18:26.469Z,21.77
2022-09-15T13:21:05.361Z,22.05
2022-09-15T13:23:42.379Z,22.02
2022-09-15T13:26:22.597Z,22.36
2022-09-15T13:28:56.392Z,22.63
2022-09-15T13:31:40.797Z,22.56
2022-09-15T13:35:27.157Z,22.34
2022-09-15T13:38:46.737Z,21.85
2022-09-15T13:41:57.905Z,21.60
2022-09-15T13:45:24.108Z,21.46
2022-09-15T13:48:47.521Z,21.65
2022-09-15T13:51:26.557Z,21.54
2022-09-15T13:53:59.641Z,21.70
2022-09-15T13:59:09.950Z,20.98
2022-09-15T14:01:43.077Z,20.90
2022-09-15T14:04:17.637Z,20.74
2022-09-15T14:06:51.695Z,20.51
2022-09-15T14:09:27.538Z,20.42
2022-09-15T14:12:02.429Z,20.27
2022-09-15T14:14:40.291Z,20.17
2022-09-15T14:17:21.496Z,19.95
2022-09-15T14:19:53.405Z,19.65
2022-09-15T14:22:30.356Z,19.40
2022-09-15T14:25:06.875Z,19.20
2022-09-15T14:27:44.381Z,19.02
2022-09-15T14:30:22.897Z,18.90
2022-09-15T14:32:56.066Z,18.74
2022-09-15T14:35:31.762Z,18.62
2022-09-15T14:38:02.740Z,18.32
2022-09-15T14:40:36.781Z,17.98
2022-09-15T14:43:26.815Z,17.57
2022-09-15T14:46:05.679Z,17.30
2022-09-15T14:48:38.192Z,17.09
2022-09-15T14:51:20.004Z,16.81
2022-09-15T14:53:55.336Z,16.64
2022-09-15T14:56:29.728Z,16.48
2022-09-15T14:59:05.973Z,16.44
2022-09-15T15:01:40.529Z,16.37
2022-09-15T15:04:19.057Z,16.33
2022-09-15T15:06:58.159Z,16.34
2022-09-15T15:09:37.585Z,16.32
2022-09-15T15:12:19.314Z,16.31
2022-09-15T15:14:48.955Z,16.29
2022-09-15T15:17:35.625Z,16.29
2022-09-15T15:20:19.421Z,16.30
2022-09-15T15:22:49.640Z,16.35
2022-09-15T15:25:32.231Z,16.28
2022-09-15T15:28:02.480Z,16.28
2022-09-15T15:30:46.911Z,16.25
2022-09-15T15:33:25.334Z,16.24
2022-09-15T15:36:07.464Z,16.19
2022-09-15T15:38:42.683Z,16.17
2022-09-15T15:41:25.152Z,16.15
2022-09-15T15:44:03.262Z,16.15
2022-09-15T15:46:52.757Z,16.10
2022-09-15T15:49:27.321Z,16.04
2022-09-15T15:51:58.442Z,15.99
2022-09-15T15:54:28.720Z,15.90
2022-09-15T15:57:23.858Z,15.72
2022-09-15T15:59:58.461Z,15.54
2022-09-15T16:02:28.738Z,15.46
2022-09-15T16:04:58.102Z,15.41
2022-09-15T16:07:33.171Z,15.32
2022-09-15T16:10:03.373Z,15.16
2022-09-15T16:12:35.448Z,15.07
2022-09-15T16:15:14.884Z,14.86
2022-09-15T16:17:46.885Z,14.79
2022-09-15T16:20:19.578Z,14.68
2022-09-15T16:22:49.092Z,14.63
2022-09-15T16:25:31.407Z,14.53
2022-09-15T16:28:02.999Z,14.37
2022-09-15T16:30:35.156Z,14.24
2022-09-15T16:33:05.047Z,14.14
2022-09-15T16:35:44.143Z,14.08
2022-09-15T16:38:13.778Z,13.97
2022-09-15T16:40:43.170Z,13.95
2022-09-15T16:43:18.990Z,13.93
2022-09-15T16:45:50.474Z,13.89
2022-09-15T16:48:20.687Z,13.92
2022-09-15T16:51:09.548Z,13.92
2022-09-15T16:53:41.093Z,13.95
2022-09-15T16:56:13.542Z,13.94
2022-09-15T16:58:44.931Z,13.92
2022-09-15T17:01:19.687Z,13.87
2022-09-15T17:03:49.977Z,13.86
2022-09-15T17:06:19.512Z,13.85
2022-09-15T17:08:49.045Z,13.80
2022-09-15T17:11:23.714Z,13.79
2022-09-15T17:13:54.719Z,13.78
2022-09-15T17:16:24.414Z,13.80
2022-09-15T17:18:54.063Z,13.80
2022-09-15T17:21:23.512Z,13.79
2022-09-15T17:23:53.241Z,13.74
2022-09-15T17:26:30.478Z,13.75
2022-09-15T17:29:02.250Z,13.73
2022-09-15T17:31:32.387Z,13.72
2022-09-15T17:34:02.586Z,13.70
2022-09-15T17:36:32.182Z,13.70
2022-09-15T17:39:01.588Z,13.68
2022-09-15T17:41:32.521Z,13.64
2022-09-15T17:44:03.729Z,13.62
2022-09-15T17:46:33.168Z,13.56
2022-09-15T17:49:02.575Z,13.55
2022-09-15T17:51:32.006Z,13.53
2022-09-15T17:54:01.618Z,13.53
2022-09-15T17:56:31.227Z,13.50
2022-09-15T17:59:02.004Z,13.50
2022-09-15T18:01:31.450Z,13.46
2022-09-15T18:04:01.132Z,13.45
2022-09-15T18:06:30.586Z,13.45
2022-09-15T18:08:59.992Z,13.48
2022-09-15T18:11:29.411Z,13.45
2022-09-15T18:13:59.136Z,13.46
2022-09-15T18:16:30.032Z,13.50
2022-09-15T18:18:59.438Z,13.45
2022-09-15T18:21:30.914Z,13.41
2022-09-15T18:24:00.295Z,13.43
2022-09-15T18:26:29.704Z,13.40
2022-09-15T18:28:59.189Z,13.40
2022-09-15T18:31:30.222Z,13.43
2022-09-15T18:33:59.672Z,13.43
2022-09-15T18:36:29.758Z,13.43
2022-09-15T18:39:00.847Z,13.45
2022-09-15T18:41:30.285Z,13.46
2022-09-15T18:43:59.684Z,13.49
2022-09-15T18:46:30.620Z,13.49
2022-09-15T18:49:00.088Z,13.47
2022-09-15T18:51:50.479Z,13.50
2022-09-15T18:54:19.131Z,13.46
2022-09-15T18:56:48.840Z,13.46
2022-09-15T18:59:18.291Z,13.51
2022-09-15T19:01:49.165Z,13.49
2022-09-15T19:04:18.784Z,13.51
2022-09-15T19:06:48.178Z,13.48
2022-09-15T19:09:17.806Z,13.47
2022-09-15T19:11:47.227Z,13.49
2022-09-15T19:14:16.777Z,13.49
2022-09-15T19:16:57.708Z,13.51
2022-09-15T19:19:29.598Z,13.46
2022-09-15T19:21:58.996Z,13.43
2022-09-15T19:24:33.471Z,13.43
2022-09-15T19:27:03.891Z,13.39
2022-09-15T19:29:34.767Z,13.40
2022-09-15T19:32:08.192Z,13.43
2022-09-15T19:34:41.889Z,13.40
2022-09-15T19:37:18.482Z,13.36
2022-09-15T19:39:49.894Z,13.38
2022-09-15T19:42:19.466Z,13.38
2022-09-15T19:44:49.479Z,13.35
2022-09-15T19:47:18.929Z,13.33
2022-09-15T19:49:52.009Z,13.29
2022-09-15T19:52:21.598Z,13.27
2022-09-15T19:54:51.221Z,13.30
2022-09-15T19:57:21.113Z,13.24
2022-09-15T19:59:50.932Z,13.19
2022-09-15T20:02:20.361Z,13.18
2022-09-15T20:04:51.114Z,13.17
2022-09-15T20:07:20.534Z,13.14
2022-09-15T20:09:51.533Z,13.12
2022-09-15T20:14:55.462Z,13.10
2022-09-15T20:17:25.322Z,13.12
2022-09-15T20:19:56.186Z,13.08
2022-09-15T20:22:25.709Z,13.06
2022-09-15T20:24:56.065Z,13.06
2022-09-15T20:27:25.470Z,13.08
2022-09-15T20:29:57.059Z,13.06
2022-09-15T20:32:29.182Z,13.07
2022-09-15T20:34:59.972Z,13.05
2022-09-15T20:37:30.585Z,13.07
2022-09-15T20:40:02.893Z,13.04
2022-09-15T20:42:32.228Z,13.00
2022-09-15T20:45:01.673Z,13.00
2022-09-15T20:47:31.063Z,13.00
2022-09-15T20:50:01.836Z,12.99
2022-09-15T20:52:36.008Z,12.98
2022-09-15T20:55:08.600Z,12.93
2022-09-15T20:57:37.996Z,12.93
2022-09-15T21:00:10.434Z,12.91
2022-09-15T21:02:39.933Z,12.94
2022-09-15T21:05:11.202Z,12.91
2022-09-15T21:07:40.860Z,12.89
2022-09-15T21:10:11.007Z,12.87
2022-09-15T21:12:40.417Z,12.86
2022-09-15T21:15:12.012Z,12.84
2022-09-15T21:17:41.409Z,12.78
2022-09-15T21:20:12.458Z,12.75
2022-09-15T21:22:41.900Z,12.69
2022-09-15T21:25:11.316Z,12.68
2022-09-15T21:27:40.790Z,12.66
2022-09-15T21:30:12.321Z,12.66
2022-09-15T21:32:41.749Z,12.60
2022-09-15T21:35:12.730Z,12.57
2022-09-15T21:37:42.270Z,12.58
2022-09-15T21:40:12.962Z,12.63
2022-09-15T21:42:42.422Z,12.61
2022-09-15T21:45:12.358Z,12.62
2022-09-15T21:47:41.752Z,12.59
2022-09-15T21:50:12.681Z,12.58
2022-09-15T21:52:42.612Z,12.60
2022-09-15T21:55:12.077Z,12.49
2022-09-15T21:57:41.441Z,12.49
2022-09-15T22:00:13.935Z,12.50
2022-09-15T22:02:43.411Z,12.48
2022-09-15T22:05:14.161Z,12.47
2022-09-15T22:07:43.622Z,12.46
2022-09-15T22:10:13.013Z,12.50
2022-09-15T22:12:42.402Z,12.47
2022-09-15T22:15:12.254Z,12.52
2022-09-15T22:17:42.261Z,12.51
2022-09-15T22:20:13.227Z,12.48
2022-09-15T22:22:44.167Z,12.51
2022-09-15T22:25:16.488Z,12.49
2022-09-15T22:27:47.957Z,12.50
2022-09-15T22:30:17.548Z,12.52
2022-09-15T22:32:46.940Z,12.60
2022-09-15T22:35:18.328Z,12.60
2022-09-15T22:37:47.713Z,12.56
2022-09-15T22:40:18.027Z,12.53
2022-09-15T22:42:47.533Z,12.57
2022-09-15T22:45:17.615Z,12.62
2022-09-15T22:47:47.014Z,12.59
2022-09-15T22:50:18.007Z,12.57
2022-09-15T22:52:48.137Z,12.58
2022-09-15T22:55:17.651Z,12.54
2022-09-15T22:57:49.999Z,12.55
2022-09-15T23:00:20.149Z,12.52
2022-09-15T23:02:49.984Z,12.54
2022-09-15T23:05:20.947Z,12.53
2022-09-15T23:07:50.343Z,12.62
2022-09-15T23:10:19.774Z,12.58
2022-09-15T23:12:49.164Z,12.58
2022-09-15T23:15:19.711Z,12.56
2022-09-15T23:17:49.138Z,12.57
2022-09-15T23:20:20.218Z,12.63
2022-09-15T23:22:49.671Z,12.61
2022-09-15T23:25:19.194Z,12.63
2022-09-15T23:27:48.601Z,12.63
2022-09-15T23:30:18.169Z,12.66
2022-09-15T23:32:47.610Z,12.62
2022-09-15T23:35:17.152Z,12.67
2022-09-15T23:37:47.902Z,12.62
2022-09-15T23:40:17.602Z,12.67
2022-09-15T23:42:47.360Z,12.67
2022-09-15T23:45:17.024Z,12.67
2022-09-15T23:47:47.015Z,12.68
2022-09-15T23:50:16.641Z,12.74
2022-09-15T23:52:47.435Z,12.71
2022-09-15T23:55:17.081Z,12.70
2022-09-15T23:57:46.495Z,12.69
